Chie Maru No.10 — JD2376 — position and weather

sailwx.info

Track history (hours):
 
Tides and Currents Weather Stations Pressure Air Temp Water Temp Dewpoint Dewpoint Depression Visibility Wind Speed Wind Dir Waves Ship Positions

Chie Maru No.10

Last reported at 2016-Feb-06 05:12 UTC. Time now 2016-Feb-07 01:30 UTC.
Position N 34°08' E 134°58'.

Length 72 m; draft 3.8 m.

Type: Ship. MMSI: 431000147.

Date/timePositionNaut miles runAvg speedWind from/ knotsBaromVisibWave heightAir tempDewpointWater temp
2016-Feb-06 05:12N 34°08' E 134°58'812.6
2016-Feb-06 04:33N 34°09' E 135°08'3 3.1
2016-Feb-06 03:31N 34°09' E 135°12'0 0.0
2016-Feb-06 02:31N 34°09' E 135°12'0 0.0
2016-Feb-06 01:31N 34°09' E 135°12'0 0.0
2016-Feb-06 00:34N 34°09' E 135°12'2 2.0
2016-Feb-05 23:30N 34°09' E 135°09'0 0.0
2016-Feb-05 22:33N 34°09' E 135°09'0 0.0
2016-Feb-05 21:27N 34°09' E 135°09'0 0.1
2016-Feb-05 20:33N 34°09' E 135°09'0 0.0
2016-Feb-05 19:33N 34°09' E 135°09'0 0.0
2016-Feb-05 18:33N 34°09' E 135°09'0 0.0
2016-Feb-05 17:33N 34°09' E 135°09'0 0.0
2016-Feb-05 16:33N 34°09' E 135°09'0 0.0
2016-Feb-05 15:30N 34°09' E 135°09'2 2.6
2016-Feb-05 14:33N 34°09' E 135°07'1411.6
2016-Feb-05 13:21N 34°07' E 134°50'29 0.9
2016-Feb-04 04:07N 34°36' E 134°54'810.6
2016-Feb-04 03:24N 34°37' E 135°03'5 5.9
2016-Feb-04 02:33N 34°39' E 135°08'0 0.0
2016-Feb-04 01:33N 34°39' E 135°08'0 0.0
2016-Feb-04 00:33N 34°39' E 135°08'1 0.9
2016-Feb-03 23:33N 34°38' E 135°08'0 0.0
2016-Feb-03 22:33N 34°38' E 135°08'0 0.0
2016-Feb-03 21:33N 34°38' E 135°08'0 0.0
2016-Feb-03 20:33N 34°38' E 135°08'0 0.0
2016-Feb-03 19:33N 34°38' E 135°08'0 0.0
2016-Feb-03 18:33N 34°38' E 135°08'0 0.0
2016-Feb-03 17:33N 34°38' E 135°08'0 0.0
2016-Feb-03 16:33N 34°38' E 135°08'0 0.0
2016-Feb-03 15:33N 34°38' E 135°08'0 0.0
2016-Feb-03 14:33N 34°38' E 135°08'6 6.3
2016-Feb-03 13:33N 34°37' E 135°01'  
2016-Jan-31 00:06N 33°41' E 129°55'712.4
2016-Jan-30 23:31N 33°44' E 130°03'1312.2
2016-Jan-30 22:28N 33°51' E 130°16'237 6.2
2016-Jan-29 08:05N 34°37' E 134°57'510.0
2016-Jan-29 07:32N 34°36' E 135°04'4 4.4
2016-Jan-29 06:33N 34°39' E 135°08'0 0.0
2016-Jan-29 05:33N 34°39' E 135°08'0 0.0
2016-Jan-29 04:33N 34°39' E 135°08'1 1.1
2016-Jan-29 03:33N 34°37' E 135°08'0 0.0
2016-Jan-29 02:31N 34°37' E 135°08'0 0.0
2016-Jan-29 01:25N 34°37' E 135°08'0 0.0
2016-Jan-29 00:19N 34°37' E 135°08'0 0.0
2016-Jan-28 23:31N 34°37' E 135°08'0 0.0
2016-Jan-28 22:31N 34°37' E 135°08'0 0.0
2016-Jan-28 21:31N 34°37' E 135°08'0 0.0
2016-Jan-28 20:31N 34°37' E 135°08'0 0.0
2016-Jan-28 19:31N 34°37' E 135°08'0 0.0
2016-Jan-28 18:31N 34°37' E 135°08'0 0.0
2016-Jan-28 17:31N 34°37' E 135°08'0 0.0
2016-Jan-28 16:31N 34°37' E 135°08'2 2.1
2016-Jan-28 15:33N 34°36' E 135°07'1212.2
2016-Jan-28 14:33N 34°24' E 135°02'1211.5
2016-Jan-28 13:33N 34°12' E 135°02'7 1.4
2016-Jan-28 08:25N 34°07' E 135°08'1 1.1
2016-Jan-28 07:33N 34°08' E 135°07'0 0.0
2016-Jan-28 06:30N 34°08' E 135°07'0 0.0
2016-Jan-28 05:32N 34°08' E 135°07'4 4.0
2016-Jan-28 04:33N 34°10' E 135°03'1110.8
2016-Jan-28 03:31N 34°21' E 134°60'1212.2
2016-Jan-28 02:33N 34°32' E 135°06'7 6.9
2016-Jan-28 01:33N 34°39' E 135°08'0 0.0
2016-Jan-28 00:33N 34°39' E 135°08'1 0.7
2016-Jan-27 23:30N 34°38' E 135°08'0 0.0
2016-Jan-27 22:34N 34°38' E 135°08'10 9.9
2016-Jan-27 21:33N 34°29' E 135°03'1312.1
2016-Jan-27 20:29N 34°16' E 134°59'  
Track history (hours):
 
Tides and Currents Weather Stations Pressure Air Temp Water Temp Dewpoint Dewpoint Depression Visibility Wind Speed Wind Dir Waves Ship Positions

Chie Maru No.10

Last reported at 2016-Feb-06 05:12 UTC. Time now 2016-Feb-07 01:30 UTC.
Position N 34°08' E 134°58'.

Length 72 m; draft 3.8 m.

Type: Ship. MMSI: 431000147.

Date/timePositionNaut miles runAvg speedWind from/ knotsBaromVisibWave heightAir tempDewpointWater temp
2016-Feb-06 05:12N 34°08' E 134°58'812.6
2016-Feb-06 04:33N 34°09' E 135°08'3 3.1
2016-Feb-06 03:31N 34°09' E 135°12'0 0.0
2016-Feb-06 02:31N 34°09' E 135°12'0 0.0
2016-Feb-06 01:31N 34°09' E 135°12'0 0.0
2016-Feb-06 00:34N 34°09' E 135°12'2 2.0
2016-Feb-05 23:30N 34°09' E 135°09'0 0.0
2016-Feb-05 22:33N 34°09' E 135°09'0 0.0
2016-Feb-05 21:27N 34°09' E 135°09'0 0.1
2016-Feb-05 20:33N 34°09' E 135°09'0 0.0
2016-Feb-05 19:33N 34°09' E 135°09'0 0.0
2016-Feb-05 18:33N 34°09' E 135°09'0 0.0
2016-Feb-05 17:33N 34°09' E 135°09'0 0.0
2016-Feb-05 16:33N 34°09' E 135°09'0 0.0
2016-Feb-05 15:30N 34°09' E 135°09'2 2.6
2016-Feb-05 14:33N 34°09' E 135°07'1411.6
2016-Feb-05 13:21N 34°07' E 134°50'29 0.9
2016-Feb-04 04:07N 34°36' E 134°54'810.6
2016-Feb-04 03:24N 34°37' E 135°03'5 5.9
2016-Feb-04 02:33N 34°39' E 135°08'0 0.0
2016-Feb-04 01:33N 34°39' E 135°08'0 0.0
2016-Feb-04 00:33N 34°39' E 135°08'1 0.9
2016-Feb-03 23:33N 34°38' E 135°08'0 0.0
2016-Feb-03 22:33N 34°38' E 135°08'0 0.0
2016-Feb-03 21:33N 34°38' E 135°08'0 0.0
2016-Feb-03 20:33N 34°38' E 135°08'0 0.0
2016-Feb-03 19:33N 34°38' E 135°08'0 0.0
2016-Feb-03 18:33N 34°38' E 135°08'0 0.0
2016-Feb-03 17:33N 34°38' E 135°08'0 0.0
2016-Feb-03 16:33N 34°38' E 135°08'0 0.0
2016-Feb-03 15:33N 34°38' E 135°08'0 0.0
2016-Feb-03 14:33N 34°38' E 135°08'6 6.3
2016-Feb-03 13:33N 34°37' E 135°01'  
2016-Jan-31 00:06N 33°41' E 129°55'712.4
2016-Jan-30 23:31N 33°44' E 130°03'1312.2
2016-Jan-30 22:28N 33°51' E 130°16'237 6.2
2016-Jan-29 08:05N 34°37' E 134°57'510.0
2016-Jan-29 07:32N 34°36' E 135°04'4 4.4
2016-Jan-29 06:33N 34°39' E 135°08'0 0.0
2016-Jan-29 05:33N 34°39' E 135°08'0 0.0
2016-Jan-29 04:33N 34°39' E 135°08'1 1.1
2016-Jan-29 03:33N 34°37' E 135°08'0 0.0
2016-Jan-29 02:31N 34°37' E 135°08'0 0.0
2016-Jan-29 01:25N 34°37' E 135°08'0 0.0
2016-Jan-29 00:19N 34°37' E 135°08'0 0.0
2016-Jan-28 23:31N 34°37' E 135°08'0 0.0
2016-Jan-28 22:31N 34°37' E 135°08'0 0.0
2016-Jan-28 21:31N 34°37' E 135°08'0 0.0
2016-Jan-28 20:31N 34°37' E 135°08'0 0.0
2016-Jan-28 19:31N 34°37' E 135°08'0 0.0
2016-Jan-28 18:31N 34°37' E 135°08'0 0.0
2016-Jan-28 17:31N 34°37' E 135°08'0 0.0
2016-Jan-28 16:31N 34°37' E 135°08'2 2.1
2016-Jan-28 15:33N 34°36' E 135°07'1212.2
2016-Jan-28 14:33N 34°24' E 135°02'1211.5
2016-Jan-28 13:33N 34°12' E 135°02'7 1.4
2016-Jan-28 08:25N 34°07' E 135°08'1 1.1
2016-Jan-28 07:33N 34°08' E 135°07'0 0.0
2016-Jan-28 06:30N 34°08' E 135°07'0 0.0
2016-Jan-28 05:32N 34°08' E 135°07'4 4.0
2016-Jan-28 04:33N 34°10' E 135°03'1110.8
2016-Jan-28 03:31N 34°21' E 134°60'1212.2
2016-Jan-28 02:33N 34°32' E 135°06'7 6.9
2016-Jan-28 01:33N 34°39' E 135°08'0 0.0
2016-Jan-28 00:33N 34°39' E 135°08'1 0.7
2016-Jan-27 23:30N 34°38' E 135°08'0 0.0
2016-Jan-27 22:34N 34°38' E 135°08'10 9.9
2016-Jan-27 21:33N 34°29' E 135°03'1312.1
2016-Jan-27 20:29N 34°16' E 134°59'  

Dump ship's entire track history